This is the latest recevied weather packets stored in our database for station/object EA5AER-5. If no packets are shown the sender has not sent any weather packets the latest 10 day(s).
| Time | Temp. | Humidity | Pressure | Rain* | Wind** | Luminosity | Snow |
|---|---|---|---|---|---|---|---|
| 1777553440 | 20° C | 73% | 1013.8 hPa | 0 mm | - | 881 W/m² | - |
| 1777552342 | 20° C | 73% | 1013.8 hPa | 0 mm | - | 881 W/m² | - |
| 1777551153 | 20.56° C | 70% | 1014 hPa | 0 mm | - | 905 W/m² | - |
| 1777549949 | 20.56° C | 73% | 1014 hPa | 0 mm | - | 882 W/m² | - |
| 1777548760 | 19.44° C | 74% | 1014.5 hPa | 0 mm | - | 817 W/m² | - |
| 1777547520 | 19.44° C | 74% | 1014.5 hPa | 0 mm | - | 817 W/m² | - |
| 1777546255 | 19.44° C | 74% | 1014.5 hPa | 0 mm | - | 817 W/m² | - |
| 1777545072 | 19.44° C | 74% | 1014.5 hPa | 0 mm | - | 817 W/m² | - |
| 1777543930 | 20° C | 70% | 1014.5 hPa | 0 mm | - | 737 W/m² | - |
| 1777542746 | 20° C | 70% | 1014.5 hPa | 0 mm | - | 737 W/m² | - |
| 1777541570 | 19.44° C | 72% | 1014.6 hPa | 0 mm | - | 668 W/m² | - |
| 1777540404 | 19.44° C | 72% | 1014.6 hPa | 0 mm | - | 668 W/m² | - |
| 1777539147 | 19.44° C | 74% | 1014.4 hPa | 0 mm | - | 631 W/m² | - |
| 1777537933 | 19.44° C | 75% | 1014.2 hPa | 0 mm | - | 541 W/m² | - |
| 1777536760 | 18.89° C | 75% | 1014 hPa | 0 mm | - | 179 W/m² | - |
| 1777535484 | 18.33° C | 76% | 1013.9 hPa | 0 mm | - | 218 W/m² | - |
| 1777534221 | 18.33° C | 76% | 1013.9 hPa | 0 mm | - | 218 W/m² | - |
| 1777532939 | 17.78° C | 76% | 1013.7 hPa | 0 mm | - | 134 W/m² | - |
| 1777531739 | 17.78° C | 77% | 1013.6 hPa | 0 mm | - | 218 W/m² | - |
| 1777530518 | 17.22° C | 78% | 1013.2 hPa | 0 mm | - | 56 W/m² | - |
| 1777529240 | 17.22° C | 78% | 1013.2 hPa | 0 mm | - | 56 W/m² | - |
| 1777527973 | 16.67° C | 81% | 1012.3 hPa | 0 mm | - | 0 W/m² | - |
| 1777526713 | 16.67° C | 81% | 1012.3 hPa | 0 mm | - | 0 W/m² | - |
| 1777525564 | 16.67° C | 81% | 1012.3 hPa | 0 mm | - | 0 W/m² | - |
| 1777524402 | 16.67° C | 81% | 1012.3 hPa | 0 mm | - | 0 W/m² | - |
* Rain latest hour (hover to see other rain measurements)
** Current wind speed in m/s (hover to see current wind gust speed)